Terminal Aerodrome Forecast
Issued by NWS

Home | Current Version | Previous Version | Text Only | Print | Product List | Glossary On
Versions: 1 2 3 4 5 6 7 8 9 10 11 12 13 14 15 16 17
000
FTUS45 KBOU 200524
TAFBJC
TAF
KBJC 200524Z 2006/2106 27012KT P6SM FEW100 BKN220
     FM201700 27012G20KT P6SM FEW090 SCT140 BKN200
     FM210100 24008KT P6SM FEW090 SCT140 BKN200=

USA.gov is the U.S. government's official web portal to all federal, state and local government web resources and services.